RYR2TL EPMO-EGSS
Flight info
| Callsign | RYR2TL |
|---|---|
| Flight time | 2h 3m |
| Altitude | 34000 |
| Route | OLILA DCT MEBIV DCT RILAB L621 SOMOR DCT TADAK L29 ALUKA DCT GARLU DCT NOGRO M40 RINIS |
| Aircraft | B738/M-SDE3FGILRWY/SB1 |
Departure
| Time | 2026-04-23 13:31 |
|---|---|
| Airport | Warsaw Modlin Airport (EPMO) |
Arrival
| Time | 2026-04-23 15:34 |
|---|---|
| Airport | London Stansted Airport (EGSS) |
| Time | Latitude | Longitude | Altitude | Speed | Heading |
|---|---|---|---|---|---|
| 2026-04-23 13:04 | 52.44741 | 20.65181 | 334 ft | 0 kts | 206° |
| 2026-04-23 13:21 | 52.44744 | 20.65184 | 337 ft | 2 kts | 200° |
| 2026-04-23 13:21 | 52.44760 | 20.65190 | 333 ft | 2 kts | 173° |
| 2026-04-23 13:21 | 52.44775 | 20.65180 | 332 ft | 2 kts | 125° |
| 2026-04-23 13:21 | 52.44781 | 20.65157 | 335 ft | 1 kts | 90° |
| 2026-04-23 13:22 | 52.44781 | 20.65152 | 334 ft | 0 kts | 83° |
| 2026-04-23 13:25 | 52.44781 | 20.65153 | 337 ft | 1 kts | 83° |
| 2026-04-23 13:25 | 52.44784 | 20.65191 | 337 ft | 7 kts | 82° |
| 2026-04-23 13:25 | 52.44795 | 20.65306 | 335 ft | 12 kts | 81° |
| 2026-04-23 13:25 | 52.44808 | 20.65437 | 332 ft | 12 kts | 81° |
| 2026-04-23 13:26 | 52.44820 | 20.65565 | 336 ft | 11 kts | 82° |
| 2026-04-23 13:26 | 52.44831 | 20.65690 | 337 ft | 11 kts | 82° |
| 2026-04-23 13:26 | 52.44842 | 20.65812 | 336 ft | 11 kts | 80° |
| 2026-04-23 13:26 | 52.44854 | 20.65943 | 336 ft | 12 kts | 82° |
| 2026-04-23 13:27 | 52.44865 | 20.66078 | 333 ft | 12 kts | 81° |
| 2026-04-23 13:27 | 52.44878 | 20.66209 | 337 ft | 12 kts | 80° |
| 2026-04-23 13:27 | 52.44893 | 20.66346 | 337 ft | 12 kts | 80° |
| 2026-04-23 13:27 | 52.44905 | 20.66481 | 334 ft | 12 kts | 82° |
| 2026-04-23 13:28 | 52.44919 | 20.66640 | 337 ft | 16 kts | 81° |
| 2026-04-23 13:28 | 52.44938 | 20.66825 | 334 ft | 16 kts | 81° |
| 2026-04-23 13:28 | 52.44951 | 20.66995 | 337 ft | 11 kts | 82° |
| 2026-04-23 13:28 | 52.44997 | 20.67080 | 334 ft | 11 kts | 8° |
| 2026-04-23 13:29 | 52.45070 | 20.67066 | 334 ft | 10 kts | 351° |
| 2026-04-23 13:29 | 52.45140 | 20.67046 | 333 ft | 10 kts | 349° |
| 2026-04-23 13:29 | 52.45208 | 20.67021 | 337 ft | 10 kts | 342° |
| 2026-04-23 13:29 | 52.45269 | 20.66987 | 334 ft | 8 kts | 332° |
| 2026-04-23 13:30 | 52.45285 | 20.66936 | 337 ft | 0 kts | 265° |
| 2026-04-23 13:30 | 52.45280 | 20.66874 | 334 ft | 28 kts | 262° |
| 2026-04-23 13:30 | 52.45213 | 20.66131 | 337 ft | 102 kts | 258° |
| 2026-04-23 13:30 | 52.45076 | 20.64635 | 373 ft | 159 kts | 270° |
| 2026-04-23 13:31 | 52.44898 | 20.62850 | 1173 ft | 155 kts | 268° |
| 2026-04-23 13:31 | 52.44696 | 20.61097 | 1906 ft | 163 kts | 269° |
| 2026-04-23 13:31 | 52.44483 | 20.59229 | 2710 ft | 166 kts | 268° |
| 2026-04-23 13:31 | 52.44267 | 20.57382 | 3552 ft | 168 kts | 269° |
| 2026-04-23 13:32 | 52.44312 | 20.55496 | 4157 ft | 173 kts | 295° |
| 2026-04-23 13:32 | 52.44919 | 20.53722 | 4603 ft | 183 kts | 317° |
| 2026-04-23 13:32 | 52.46047 | 20.52555 | 4838 ft | 205 kts | 344° |
| 2026-04-23 13:32 | 52.47534 | 20.52261 | 5125 ft | 230 kts | 355° |
| 2026-04-23 13:33 | 52.49194 | 20.52108 | 5690 ft | 244 kts | 356° |
| 2026-04-23 13:33 | 52.50906 | 20.51963 | 6587 ft | 247 kts | 356° |
| 2026-04-23 13:33 | 52.52615 | 20.51813 | 7560 ft | 246 kts | 356° |
| 2026-04-23 13:33 | 52.54343 | 20.51639 | 8353 ft | 252 kts | 352° |
| 2026-04-23 13:34 | 52.55449 | 20.51046 | 8894 ft | 257 kts | 330° |
| 2026-04-23 13:34 | 52.56823 | 20.49130 | 9811 ft | 261 kts | 321° |
| 2026-04-23 13:34 | 52.58188 | 20.47095 | 10448 ft | 272 kts | 322° |
| 2026-04-23 13:34 | 52.59667 | 20.44918 | 10646 ft | 298 kts | 322° |
| 2026-04-23 13:35 | 52.61244 | 20.42598 | 11180 ft | 309 kts | 322° |
| 2026-04-23 13:35 | 52.62856 | 20.40220 | 11954 ft | 312 kts | 322° |
| 2026-04-23 13:35 | 52.64471 | 20.37837 | 12843 ft | 313 kts | 322° |
| 2026-04-23 13:35 | 52.66101 | 20.35433 | 13641 ft | 317 kts | 322° |
| 2026-04-23 13:36 | 52.67753 | 20.32999 | 14354 ft | 320 kts | 323° |
| 2026-04-23 13:36 | 52.69423 | 20.30537 | 15040 ft | 324 kts | 323° |
| 2026-04-23 13:36 | 52.71113 | 20.28044 | 15718 ft | 328 kts | 323° |
| 2026-04-23 13:36 | 52.72822 | 20.25520 | 16411 ft | 332 kts | 323° |
| 2026-04-23 13:37 | 52.74552 | 20.22962 | 17103 ft | 336 kts | 323° |
| 2026-04-23 13:37 | 52.76299 | 20.20378 | 17801 ft | 339 kts | 323° |
| 2026-04-23 13:37 | 52.78066 | 20.17761 | 18473 ft | 342 kts | 323° |
| 2026-04-23 13:37 | 52.79845 | 20.15124 | 19072 ft | 345 kts | 323° |
| 2026-04-23 13:38 | 52.81593 | 20.12372 | 19695 ft | 351 kts | 319° |
| 2026-04-23 13:38 | 52.83195 | 20.09304 | 20306 ft | 355 kts | 316° |
| 2026-04-23 13:38 | 52.84770 | 20.06142 | 20902 ft | 358 kts | 316° |
| 2026-04-23 13:38 | 52.86353 | 20.02935 | 21476 ft | 361 kts | 316° |
| 2026-04-23 13:39 | 52.87953 | 19.99704 | 22045 ft | 364 kts | 316° |
| 2026-04-23 13:39 | 52.89545 | 19.96503 | 22610 ft | 366 kts | 316° |
| 2026-04-23 13:39 | 52.91197 | 19.93195 | 23173 ft | 369 kts | 317° |
| 2026-04-23 13:39 | 52.92820 | 19.89950 | 23701 ft | 372 kts | 317° |
| 2026-04-23 13:40 | 52.94475 | 19.86642 | 24159 ft | 374 kts | 317° |
| 2026-04-23 13:40 | 52.96141 | 19.83311 | 24633 ft | 376 kts | 317° |
| 2026-04-23 13:40 | 52.97814 | 19.79961 | 25113 ft | 378 kts | 317° |
| 2026-04-23 13:40 | 52.99495 | 19.76590 | 25565 ft | 380 kts | 317° |
| 2026-04-23 13:41 | 53.01186 | 19.73196 | 26011 ft | 382 kts | 317° |
| 2026-04-23 13:41 | 53.02885 | 19.69784 | 26446 ft | 384 kts | 317° |
| 2026-04-23 13:41 | 53.04590 | 19.66353 | 26838 ft | 387 kts | 317° |
| 2026-04-23 13:41 | 53.06320 | 19.62910 | 27221 ft | 388 kts | 319° |
| 2026-04-23 13:42 | 53.08159 | 19.59633 | 27616 ft | 387 kts | 322° |
| 2026-04-23 13:42 | 53.10057 | 19.56445 | 28038 ft | 388 kts | 322° |
| 2026-04-23 13:42 | 53.11974 | 19.53258 | 28442 ft | 390 kts | 322° |
| 2026-04-23 13:42 | 53.13893 | 19.50043 | 28833 ft | 393 kts | 322° |
| 2026-04-23 13:43 | 53.15787 | 19.46837 | 29281 ft | 394 kts | 322° |
| 2026-04-23 13:43 | 53.17726 | 19.43527 | 29762 ft | 393 kts | 322° |
| 2026-04-23 13:43 | 53.19603 | 19.40301 | 30259 ft | 393 kts | 321° |
| 2026-04-23 13:43 | 53.21250 | 19.36506 | 30696 ft | 407 kts | 307° |
| 2026-04-23 13:44 | 53.22382 | 19.32200 | 31124 ft | 416 kts | 298° |
| 2026-04-23 13:44 | 53.23054 | 19.27421 | 31468 ft | 433 kts | 286° |
| 2026-04-23 13:44 | 53.23275 | 19.22383 | 31840 ft | 436 kts | 283° |
| 2026-04-23 13:44 | 53.23412 | 19.17320 | 32215 ft | 437 kts | 282° |
| 2026-04-23 13:45 | 53.23524 | 19.12256 | 32607 ft | 436 kts | 282° |
| 2026-04-23 13:45 | 53.23637 | 19.07204 | 33012 ft | 435 kts | 282° |
| 2026-04-23 13:45 | 53.23760 | 19.02173 | 33390 ft | 433 kts | 283° |
| 2026-04-23 13:45 | 53.23893 | 18.97148 | 33739 ft | 433 kts | 283° |
| 2026-04-23 13:46 | 53.24034 | 18.92128 | 34064 ft | 433 kts | 283° |
| 2026-04-23 13:46 | 53.24333 | 18.81968 | 34076 ft | 441 kts | 283° |
| 2026-04-23 13:47 | 53.24621 | 18.71755 | 34024 ft | 437 kts | 282° |
| 2026-04-23 13:47 | 53.24894 | 18.61666 | 34064 ft | 435 kts | 282° |
| 2026-04-23 13:48 | 53.25165 | 18.51542 | 34078 ft | 437 kts | 282° |
| 2026-04-23 13:48 | 53.25429 | 18.41388 | 34077 ft | 439 kts | 282° |
| 2026-04-23 13:49 | 53.25683 | 18.31193 | 34084 ft | 440 kts | 282° |
| 2026-04-23 13:49 | 53.25927 | 18.20983 | 34031 ft | 440 kts | 281° |
| 2026-04-23 13:50 | 53.26161 | 18.10788 | 34073 ft | 439 kts | 281° |
| 2026-04-23 13:50 | 53.26389 | 18.00600 | 34073 ft | 439 kts | 281° |
| 2026-04-23 13:51 | 53.26607 | 17.90423 | 34080 ft | 438 kts | 281° |
| 2026-04-23 13:51 | 53.26817 | 17.80254 | 34083 ft | 438 kts | 281° |
| 2026-04-23 13:52 | 53.27017 | 17.70105 | 34082 ft | 437 kts | 281° |
| 2026-04-23 13:52 | 53.27208 | 17.59976 | 34087 ft | 435 kts | 281° |
| 2026-04-23 13:53 | 53.27391 | 17.49862 | 34087 ft | 435 kts | 281° |
| 2026-04-23 13:53 | 53.27564 | 17.39827 | 34095 ft | 435 kts | 280° |
| 2026-04-23 13:54 | 53.27731 | 17.29706 | 34094 ft | 436 kts | 280° |
| 2026-04-23 13:54 | 53.27888 | 17.19576 | 34104 ft | 436 kts | 280° |
| 2026-04-23 13:55 | 53.28036 | 17.09440 | 34094 ft | 436 kts | 280° |
| 2026-04-23 13:55 | 53.28179 | 16.99303 | 34106 ft | 437 kts | 279° |
| 2026-04-23 13:56 | 53.28181 | 16.89119 | 34100 ft | 445 kts | 272° |
| 2026-04-23 13:56 | 53.26878 | 16.78847 | 34117 ft | 455 kts | 263° |
| 2026-04-23 13:57 | 53.25364 | 16.68570 | 34118 ft | 456 kts | 264° |
| 2026-04-23 13:57 | 53.23933 | 16.58254 | 34084 ft | 456 kts | 264° |
| 2026-04-23 13:58 | 53.22496 | 16.47935 | 34114 ft | 456 kts | 264° |
| 2026-04-23 13:58 | 53.21048 | 16.37622 | 34125 ft | 457 kts | 264° |
| 2026-04-23 13:59 | 53.19591 | 16.27312 | 34124 ft | 456 kts | 264° |
| 2026-04-23 13:59 | 53.18126 | 16.17018 | 34128 ft | 456 kts | 264° |
| 2026-04-23 14:00 | 53.16905 | 16.08490 | 34135 ft | 455 kts | 264° |
| 2026-04-23 14:00 | 53.15182 | 15.96528 | 34123 ft | 453 kts | 263° |
| 2026-04-23 14:01 | 53.13703 | 15.86325 | 34147 ft | 453 kts | 263° |
| 2026-04-23 14:01 | 53.12215 | 15.76138 | 34152 ft | 453 kts | 263° |
| 2026-04-23 14:02 | 53.10713 | 15.65947 | 34162 ft | 453 kts | 262° |
| 2026-04-23 14:02 | 53.09215 | 15.55827 | 34166 ft | 454 kts | 262° |
| 2026-04-23 14:03 | 53.07694 | 15.45621 | 34161 ft | 455 kts | 262° |
| 2026-04-23 14:03 | 53.06164 | 15.35416 | 34168 ft | 455 kts | 262° |
| 2026-04-23 14:04 | 53.04627 | 15.25227 | 34167 ft | 454 kts | 262° |
| 2026-04-23 14:04 | 53.03081 | 15.15048 | 34171 ft | 454 kts | 262° |
| 2026-04-23 14:05 | 53.01528 | 15.04886 | 34160 ft | 454 kts | 261° |
| 2026-04-23 14:05 | 52.99966 | 14.94727 | 34183 ft | 454 kts | 261° |
| 2026-04-23 14:06 | 52.98396 | 14.84573 | 34187 ft | 454 kts | 261° |
| 2026-04-23 14:06 | 52.96816 | 14.74420 | 34189 ft | 455 kts | 261° |
| 2026-04-23 14:07 | 52.95225 | 14.64267 | 34191 ft | 455 kts | 261° |
| 2026-04-23 14:07 | 52.92821 | 14.49029 | 34189 ft | 456 kts | 261° |
| 2026-04-23 14:08 | 52.91207 | 14.38870 | 34204 ft | 456 kts | 261° |
| 2026-04-23 14:08 | 52.89823 | 14.28668 | 34172 ft | 449 kts | 271° |
| 2026-04-23 14:09 | 52.89684 | 14.18438 | 34197 ft | 444 kts | 275° |
| 2026-04-23 14:09 | 52.89644 | 14.08215 | 34196 ft | 445 kts | 275° |
| 2026-04-23 14:10 | 52.89566 | 13.97968 | 34218 ft | 445 kts | 275° |
| 2026-04-23 14:10 | 52.89454 | 13.87697 | 34213 ft | 447 kts | 274° |
| 2026-04-23 14:11 | 52.89324 | 13.77400 | 34221 ft | 448 kts | 274° |
| 2026-04-23 14:11 | 52.89184 | 13.67156 | 34214 ft | 448 kts | 274° |
| 2026-04-23 14:12 | 52.89036 | 13.56833 | 34223 ft | 449 kts | 273° |
| 2026-04-23 14:12 | 52.88879 | 13.46499 | 34221 ft | 449 kts | 273° |
| 2026-04-23 14:13 | 52.88713 | 13.36149 | 34220 ft | 450 kts | 273° |
| 2026-04-23 14:13 | 52.88538 | 13.25792 | 34220 ft | 450 kts | 273° |
| 2026-04-23 14:14 | 52.88353 | 13.15446 | 34220 ft | 449 kts | 272° |
| 2026-04-23 14:14 | 52.88160 | 13.05113 | 34223 ft | 449 kts | 272° |
| 2026-04-23 14:15 | 52.87959 | 12.94788 | 34225 ft | 449 kts | 272° |
| 2026-04-23 14:15 | 52.87749 | 12.84471 | 34223 ft | 448 kts | 272° |
| 2026-04-23 14:16 | 52.87530 | 12.74157 | 34212 ft | 448 kts | 272° |
| 2026-04-23 14:16 | 52.87302 | 12.63855 | 34208 ft | 447 kts | 271° |
| 2026-04-23 14:17 | 52.87065 | 12.53572 | 34219 ft | 447 kts | 271° |
| 2026-04-23 14:17 | 52.86820 | 12.43300 | 34217 ft | 447 kts | 271° |
| 2026-04-23 14:18 | 52.86567 | 12.33035 | 34223 ft | 446 kts | 271° |
| 2026-04-23 14:18 | 52.86304 | 12.22775 | 34223 ft | 446 kts | 271° |
| 2026-04-23 14:19 | 52.86033 | 12.12521 | 34217 ft | 446 kts | 270° |
| 2026-04-23 14:19 | 52.85753 | 12.02269 | 34226 ft | 446 kts | 270° |
| 2026-04-23 14:20 | 52.85464 | 11.92023 | 34233 ft | 446 kts | 270° |
| 2026-04-23 14:20 | 52.85167 | 11.81776 | 34233 ft | 446 kts | 270° |
| 2026-04-23 14:21 | 52.84863 | 11.71596 | 34236 ft | 446 kts | 270° |
| 2026-04-23 14:21 | 52.84599 | 11.63007 | 34224 ft | 446 kts | 269° |
| 2026-04-23 14:22 | 52.84223 | 11.51101 | 34235 ft | 446 kts | 269° |
| 2026-04-23 14:22 | 52.83945 | 11.42524 | 34238 ft | 446 kts | 269° |
| 2026-04-23 14:23 | 52.83606 | 11.32296 | 34247 ft | 445 kts | 269° |
| 2026-04-23 14:23 | 52.83259 | 11.22072 | 34249 ft | 445 kts | 269° |
| 2026-04-23 14:24 | 52.82902 | 11.11924 | 34246 ft | 445 kts | 267° |
| 2026-04-23 14:24 | 52.82260 | 11.01756 | 34255 ft | 445 kts | 264° |
| 2026-04-23 14:25 | 52.81453 | 10.91627 | 34257 ft | 444 kts | 264° |
| 2026-04-23 14:25 | 52.80647 | 10.81509 | 34260 ft | 444 kts | 264° |
| 2026-04-23 14:26 | 52.79859 | 10.71399 | 34264 ft | 443 kts | 264° |
| 2026-04-23 14:26 | 52.79075 | 10.61294 | 34249 ft | 443 kts | 264° |
| 2026-04-23 14:27 | 52.78287 | 10.51200 | 34268 ft | 443 kts | 263° |
| 2026-04-23 14:27 | 52.77489 | 10.41106 | 34289 ft | 443 kts | 263° |
| 2026-04-23 14:28 | 52.76682 | 10.31006 | 34283 ft | 444 kts | 263° |
| 2026-04-23 14:28 | 52.75864 | 10.20894 | 34296 ft | 445 kts | 263° |
| 2026-04-23 14:29 | 52.75036 | 10.10763 | 34285 ft | 446 kts | 263° |
| 2026-04-23 14:29 | 52.74198 | 10.00612 | 34296 ft | 446 kts | 262° |
| 2026-04-23 14:30 | 52.73349 | 9.90452 | 34290 ft | 448 kts | 262° |
| 2026-04-23 14:30 | 52.72490 | 9.80278 | 34310 ft | 448 kts | 262° |
| 2026-04-23 14:31 | 52.71622 | 9.70097 | 34294 ft | 448 kts | 262° |
| 2026-04-23 14:31 | 52.70746 | 9.59929 | 34317 ft | 447 kts | 262° |
| 2026-04-23 14:32 | 52.69862 | 9.49783 | 34310 ft | 447 kts | 262° |
| 2026-04-23 14:32 | 52.68971 | 9.39652 | 34308 ft | 446 kts | 262° |
| 2026-04-23 14:33 | 52.68072 | 9.29532 | 34318 ft | 446 kts | 262° |
| 2026-04-23 14:33 | 52.67166 | 9.19429 | 34318 ft | 446 kts | 262° |
| 2026-04-23 14:34 | 52.66251 | 9.09336 | 34321 ft | 445 kts | 262° |
| 2026-04-23 14:34 | 52.65333 | 8.99313 | 34310 ft | 446 kts | 261° |
| 2026-04-23 14:35 | 52.64401 | 8.89220 | 34331 ft | 446 kts | 261° |
| 2026-04-23 14:35 | 52.63461 | 8.79136 | 34327 ft | 446 kts | 261° |
| 2026-04-23 14:36 | 52.62510 | 8.69045 | 34326 ft | 446 kts | 261° |
| 2026-04-23 14:36 | 52.61551 | 8.58952 | 34332 ft | 447 kts | 261° |
| 2026-04-23 14:37 | 52.60583 | 8.48862 | 34324 ft | 447 kts | 260° |
| 2026-04-23 14:37 | 52.59605 | 8.38769 | 34347 ft | 447 kts | 259° |
| 2026-04-23 14:38 | 52.58620 | 8.28685 | 34350 ft | 447 kts | 259° |
| 2026-04-23 14:38 | 52.57626 | 8.18605 | 34342 ft | 447 kts | 259° |
| 2026-04-23 14:39 | 52.56622 | 8.08523 | 34347 ft | 446 kts | 259° |
| 2026-04-23 14:39 | 52.55612 | 7.98462 | 34350 ft | 446 kts | 259° |
| 2026-04-23 14:40 | 52.54595 | 7.88419 | 34354 ft | 446 kts | 259° |
| 2026-04-23 14:40 | 52.53569 | 7.78381 | 34355 ft | 445 kts | 259° |
| 2026-04-23 14:41 | 52.52537 | 7.68371 | 34359 ft | 444 kts | 259° |
| 2026-04-23 14:41 | 52.51498 | 7.58377 | 34361 ft | 444 kts | 258° |
| 2026-04-23 14:42 | 52.50458 | 7.48459 | 34367 ft | 444 kts | 258° |
| 2026-04-23 14:42 | 52.49402 | 7.38478 | 34375 ft | 443 kts | 258° |
| 2026-04-23 14:43 | 52.48339 | 7.28516 | 34365 ft | 443 kts | 258° |
| 2026-04-23 14:43 | 52.47268 | 7.18560 | 34373 ft | 443 kts | 258° |
| 2026-04-23 14:44 | 52.46190 | 7.08618 | 34370 ft | 443 kts | 257° |
| 2026-04-23 14:44 | 52.45105 | 6.98690 | 34370 ft | 443 kts | 257° |
| 2026-04-23 14:45 | 52.44011 | 6.88765 | 34372 ft | 442 kts | 257° |
| 2026-04-23 14:45 | 52.42910 | 6.78857 | 34363 ft | 442 kts | 257° |
| 2026-04-23 14:46 | 52.41801 | 6.68957 | 34379 ft | 442 kts | 257° |
| 2026-04-23 14:46 | 52.40685 | 6.59068 | 34377 ft | 441 kts | 257° |
| 2026-04-23 14:47 | 52.39561 | 6.49193 | 34382 ft | 441 kts | 257° |
| 2026-04-23 14:47 | 52.38429 | 6.39322 | 34395 ft | 441 kts | 256° |
| 2026-04-23 14:48 | 52.37290 | 6.29464 | 34390 ft | 441 kts | 256° |
| 2026-04-23 14:48 | 52.36143 | 6.19617 | 34391 ft | 440 kts | 256° |
| 2026-04-23 14:49 | 52.34987 | 6.09773 | 34404 ft | 441 kts | 256° |
| 2026-04-23 14:49 | 52.33825 | 5.99939 | 34396 ft | 441 kts | 256° |
| 2026-04-23 14:50 | 52.32653 | 5.90107 | 34408 ft | 441 kts | 255° |
| 2026-04-23 14:50 | 52.31473 | 5.80274 | 34400 ft | 441 kts | 255° |
| 2026-04-23 14:51 | 52.30293 | 5.70521 | 34415 ft | 441 kts | 255° |
| 2026-04-23 14:51 | 52.29097 | 5.60696 | 34423 ft | 441 kts | 255° |
| 2026-04-23 14:52 | 52.27892 | 5.50879 | 34424 ft | 441 kts | 255° |
| 2026-04-23 14:52 | 52.26681 | 5.41083 | 34443 ft | 440 kts | 255° |
| 2026-04-23 14:53 | 52.25462 | 5.31289 | 34417 ft | 440 kts | 255° |
| 2026-04-23 14:53 | 52.24237 | 5.21522 | 34420 ft | 439 kts | 255° |
| 2026-04-23 14:54 | 52.23007 | 5.11782 | 34423 ft | 438 kts | 254° |
| 2026-04-23 14:54 | 52.21772 | 5.02068 | 34424 ft | 437 kts | 254° |
| 2026-04-23 14:55 | 52.20531 | 4.92378 | 34441 ft | 436 kts | 254° |
| 2026-04-23 14:55 | 52.19283 | 4.82700 | 34429 ft | 436 kts | 253° |
| 2026-04-23 14:56 | 52.18037 | 4.73106 | 34424 ft | 436 kts | 253° |
| 2026-04-23 14:56 | 52.16774 | 4.63447 | 34431 ft | 436 kts | 253° |
| 2026-04-23 14:57 | 52.15502 | 4.53785 | 34428 ft | 437 kts | 253° |
| 2026-04-23 14:57 | 52.14220 | 4.44115 | 34433 ft | 437 kts | 253° |
| 2026-04-23 14:58 | 52.12928 | 4.34433 | 34434 ft | 438 kts | 253° |
| 2026-04-23 14:58 | 52.11626 | 4.24741 | 34441 ft | 439 kts | 253° |
| 2026-04-23 14:59 | 52.10315 | 4.15040 | 34436 ft | 439 kts | 253° |
| 2026-04-23 14:59 | 52.08994 | 4.05336 | 34442 ft | 440 kts | 253° |
| 2026-04-23 15:00 | 52.07665 | 3.95626 | 34444 ft | 440 kts | 253° |
| 2026-04-23 15:00 | 52.06328 | 3.85937 | 34459 ft | 439 kts | 252° |
| 2026-04-23 15:01 | 52.04996 | 3.76325 | 34366 ft | 428 kts | 252° |
| 2026-04-23 15:01 | 52.04345 | 3.71638 | 34052 ft | 421 kts | 252° |
| 2026-04-23 15:01 | 52.03702 | 3.67033 | 33704 ft | 416 kts | 252° |
| 2026-04-23 15:02 | 52.03278 | 3.64009 | 33481 ft | 413 kts | 252° |
| 2026-04-23 15:02 | 52.02425 | 3.57951 | 32987 ft | 409 kts | 252° |
| 2026-04-23 15:02 | 52.01790 | 3.53466 | 32628 ft | 406 kts | 252° |
| 2026-04-23 15:02 | 52.01159 | 3.49016 | 32277 ft | 403 kts | 252° |
| 2026-04-23 15:03 | 52.00531 | 3.44594 | 31927 ft | 401 kts | 252° |
| 2026-04-23 15:03 | 51.99905 | 3.40200 | 31588 ft | 398 kts | 252° |
| 2026-04-23 15:03 | 51.99289 | 3.35889 | 31245 ft | 396 kts | 252° |
| 2026-04-23 15:03 | 51.98658 | 3.31486 | 30896 ft | 394 kts | 252° |
| 2026-04-23 15:04 | 51.98046 | 3.27220 | 30546 ft | 393 kts | 252° |
| 2026-04-23 15:04 | 51.97427 | 3.22916 | 30149 ft | 390 kts | 252° |
| 2026-04-23 15:04 | 51.96810 | 3.18647 | 29759 ft | 388 kts | 252° |
| 2026-04-23 15:04 | 51.96318 | 3.14356 | 29379 ft | 387 kts | 258° |
| 2026-04-23 15:05 | 51.96015 | 3.10028 | 29028 ft | 385 kts | 260° |
| 2026-04-23 15:05 | 51.95763 | 3.05726 | 28661 ft | 382 kts | 260° |
| 2026-04-23 15:05 | 51.95517 | 3.01454 | 28313 ft | 379 kts | 260° |
| 2026-04-23 15:05 | 51.95260 | 2.97217 | 27956 ft | 376 kts | 260° |
| 2026-04-23 15:06 | 51.94992 | 2.93016 | 27608 ft | 373 kts | 260° |
| 2026-04-23 15:06 | 51.94717 | 2.88853 | 27267 ft | 371 kts | 259° |
| 2026-04-23 15:06 | 51.94438 | 2.84716 | 26921 ft | 368 kts | 259° |
| 2026-04-23 15:06 | 51.94158 | 2.80605 | 26578 ft | 366 kts | 260° |
| 2026-04-23 15:07 | 51.93879 | 2.76521 | 26242 ft | 363 kts | 260° |
| 2026-04-23 15:07 | 51.93600 | 2.72463 | 25904 ft | 361 kts | 260° |
| 2026-04-23 15:07 | 51.93321 | 2.68430 | 25564 ft | 359 kts | 260° |
| 2026-04-23 15:07 | 51.93043 | 2.64419 | 25235 ft | 357 kts | 260° |
| 2026-04-23 15:08 | 51.92768 | 2.60428 | 24898 ft | 356 kts | 261° |
| 2026-04-23 15:08 | 51.92495 | 2.56453 | 24563 ft | 354 kts | 260° |
| 2026-04-23 15:08 | 51.92222 | 2.52499 | 24236 ft | 352 kts | 261° |
| 2026-04-23 15:09 | 51.91677 | 2.44657 | 23500 ft | 349 kts | 261° |
| 2026-04-23 15:09 | 51.91406 | 2.40764 | 23146 ft | 347 kts | 260° |
| 2026-04-23 15:09 | 51.91134 | 2.36900 | 22804 ft | 344 kts | 260° |
| 2026-04-23 15:09 | 51.90862 | 2.33064 | 22470 ft | 341 kts | 261° |
| 2026-04-23 15:10 | 51.90714 | 2.30535 | 22241 ft | 341 kts | 263° |
| 2026-04-23 15:10 | 51.90602 | 2.26699 | 21903 ft | 341 kts | 265° |
| 2026-04-23 15:10 | 51.90535 | 2.22858 | 21557 ft | 341 kts | 265° |
| 2026-04-23 15:10 | 51.90471 | 2.19017 | 21211 ft | 341 kts | 266° |
| 2026-04-23 15:11 | 51.90400 | 2.15186 | 20865 ft | 340 kts | 266° |
| 2026-04-23 15:11 | 51.90321 | 2.11366 | 20513 ft | 339 kts | 266° |
| 2026-04-23 15:11 | 51.90236 | 2.07566 | 20176 ft | 337 kts | 266° |
| 2026-04-23 15:11 | 51.90147 | 2.03780 | 19830 ft | 336 kts | 265° |
| 2026-04-23 15:12 | 51.90056 | 2.00011 | 19500 ft | 335 kts | 265° |
| 2026-04-23 15:12 | 51.89964 | 1.96245 | 19163 ft | 334 kts | 265° |
| 2026-04-23 15:12 | 51.89870 | 1.92498 | 18833 ft | 333 kts | 266° |
| 2026-04-23 15:12 | 51.89931 | 1.88758 | 18428 ft | 335 kts | 282° |
| 2026-04-23 15:13 | 51.90755 | 1.85272 | 18160 ft | 330 kts | 296° |
| 2026-04-23 15:13 | 51.91815 | 1.81992 | 17836 ft | 327 kts | 299° |
| 2026-04-23 15:13 | 51.92907 | 1.78774 | 17547 ft | 325 kts | 300° |
| 2026-04-23 15:13 | 51.93991 | 1.75584 | 17253 ft | 322 kts | 298° |
| 2026-04-23 15:14 | 51.94646 | 1.72160 | 17109 ft | 318 kts | 276° |
| 2026-04-23 15:14 | 51.94811 | 1.68571 | 16899 ft | 321 kts | 274° |
| 2026-04-23 15:14 | 51.94948 | 1.64912 | 16643 ft | 329 kts | 274° |
| 2026-04-23 15:14 | 51.95086 | 1.61194 | 16376 ft | 331 kts | 274° |
| 2026-04-23 15:15 | 51.95228 | 1.57468 | 16112 ft | 332 kts | 275° |
| 2026-04-23 15:15 | 51.95376 | 1.53731 | 15854 ft | 332 kts | 275° |
| 2026-04-23 15:15 | 51.95526 | 1.50007 | 15583 ft | 330 kts | 275° |
| 2026-04-23 15:15 | 51.95678 | 1.46311 | 15326 ft | 327 kts | 275° |
| 2026-04-23 15:16 | 51.95829 | 1.42652 | 15061 ft | 323 kts | 275° |
| 2026-04-23 15:16 | 51.95978 | 1.39035 | 14811 ft | 320 kts | 275° |
| 2026-04-23 15:16 | 51.96126 | 1.35450 | 14560 ft | 318 kts | 276° |
| 2026-04-23 15:16 | 51.96273 | 1.31877 | 14308 ft | 317 kts | 276° |
| 2026-04-23 15:17 | 51.96419 | 1.28314 | 14056 ft | 316 kts | 276° |
| 2026-04-23 15:17 | 51.96563 | 1.24769 | 13786 ft | 315 kts | 276° |
| 2026-04-23 15:17 | 51.96705 | 1.21235 | 13531 ft | 313 kts | 276° |
| 2026-04-23 15:17 | 51.96846 | 1.17724 | 13283 ft | 312 kts | 275° |
| 2026-04-23 15:18 | 51.96985 | 1.14223 | 13026 ft | 310 kts | 275° |
| 2026-04-23 15:18 | 51.97122 | 1.10735 | 12774 ft | 309 kts | 275° |
| 2026-04-23 15:18 | 51.97258 | 1.07268 | 12546 ft | 308 kts | 275° |
| 2026-04-23 15:18 | 51.97393 | 1.03806 | 12309 ft | 307 kts | 275° |
| 2026-04-23 15:19 | 51.97525 | 1.00357 | 12057 ft | 306 kts | 275° |
| 2026-04-23 15:19 | 51.97653 | 0.96913 | 11820 ft | 305 kts | 275° |
| 2026-04-23 15:19 | 51.97780 | 0.93486 | 11579 ft | 304 kts | 275° |
| 2026-04-23 15:19 | 51.97907 | 0.90062 | 11340 ft | 304 kts | 275° |
| 2026-04-23 15:20 | 51.98034 | 0.86646 | 11104 ft | 303 kts | 275° |
| 2026-04-23 15:20 | 51.98160 | 0.83240 | 10871 ft | 302 kts | 275° |
| 2026-04-23 15:20 | 51.98285 | 0.79843 | 10624 ft | 301 kts | 275° |
| 2026-04-23 15:20 | 51.98408 | 0.76468 | 10381 ft | 298 kts | 275° |
| 2026-04-23 15:21 | 51.98529 | 0.73129 | 10131 ft | 295 kts | 275° |
| 2026-04-23 15:21 | 51.98648 | 0.69819 | 9881 ft | 293 kts | 275° |
| 2026-04-23 15:21 | 51.98766 | 0.66542 | 9652 ft | 289 kts | 274° |
| 2026-04-23 15:21 | 51.98881 | 0.63300 | 9421 ft | 287 kts | 274° |
| 2026-04-23 15:22 | 51.98995 | 0.60077 | 9187 ft | 285 kts | 274° |
| 2026-04-23 15:22 | 51.99107 | 0.56877 | 8968 ft | 283 kts | 274° |
| 2026-04-23 15:22 | 51.99216 | 0.53699 | 8742 ft | 282 kts | 274° |
| 2026-04-23 15:22 | 51.99325 | 0.50534 | 8522 ft | 280 kts | 274° |
| 2026-04-23 15:23 | 51.99434 | 0.47380 | 8302 ft | 279 kts | 273° |
| 2026-04-23 15:23 | 51.99542 | 0.44226 | 8086 ft | 282 kts | 273° |
| 2026-04-23 15:23 | 51.99650 | 0.41039 | 7864 ft | 284 kts | 273° |
| 2026-04-23 15:23 | 51.99757 | 0.37830 | 7649 ft | 285 kts | 273° |
| 2026-04-23 15:24 | 51.99862 | 0.34641 | 7426 ft | 282 kts | 273° |
| 2026-04-23 15:24 | 51.99964 | 0.31469 | 7193 ft | 280 kts | 273° |
| 2026-04-23 15:24 | 51.99918 | 0.28334 | 6963 ft | 278 kts | 255° |
| 2026-04-23 15:24 | 51.99031 | 0.25603 | 6540 ft | 277 kts | 225° |
| 2026-04-23 15:25 | 51.97639 | 0.23485 | 6178 ft | 273 kts | 219° |
| 2026-04-23 15:25 | 51.96234 | 0.21440 | 5801 ft | 271 kts | 220° |
| 2026-04-23 15:25 | 51.94857 | 0.19326 | 5424 ft | 274 kts | 221° |
| 2026-04-23 15:25 | 51.93496 | 0.17196 | 5054 ft | 277 kts | 222° |
| 2026-04-23 15:26 | 51.92124 | 0.15039 | 4651 ft | 273 kts | 221° |
| 2026-04-23 15:26 | 51.90754 | 0.12886 | 4254 ft | 269 kts | 221° |
| 2026-04-23 15:26 | 51.89436 | 0.10820 | 3891 ft | 265 kts | 221° |
| 2026-04-23 15:26 | 51.88116 | 0.08754 | 3522 ft | 263 kts | 222° |
| 2026-04-23 15:27 | 51.86808 | 0.06721 | 3169 ft | 260 kts | 221° |
| 2026-04-23 15:27 | 51.85514 | 0.04731 | 3012 ft | 250 kts | 221° |
| 2026-04-23 15:27 | 51.84229 | 0.02902 | 2934 ft | 244 kts | 218° |
| 2026-04-23 15:27 | 51.82930 | 0.01107 | 2903 ft | 248 kts | 218° |
| 2026-04-23 15:28 | 51.81643 | -0.00685 | 2922 ft | 237 kts | 218° |
| 2026-04-23 15:28 | 51.80397 | -0.02289 | 2766 ft | 221 kts | 204° |
| 2026-04-23 15:28 | 51.78997 | -0.02767 | 2698 ft | 198 kts | 168° |
| 2026-04-23 15:28 | 51.77731 | -0.02178 | 2584 ft | 182 kts | 148° |
| 2026-04-23 15:29 | 51.76757 | -0.01024 | 2527 ft | 167 kts | 128° |
| 2026-04-23 15:29 | 51.76165 | 0.00537 | 2494 ft | 164 kts | 105° |
| 2026-04-23 15:29 | 51.75985 | 0.02310 | 2483 ft | 158 kts | 86° |
| 2026-04-23 15:29 | 51.76185 | 0.04018 | 2480 ft | 153 kts | 70° |
| 2026-04-23 15:30 | 51.76696 | 0.05544 | 2495 ft | 159 kts | 50° |
| 2026-04-23 15:30 | 51.77490 | 0.06829 | 2495 ft | 165 kts | 47° |
| 2026-04-23 15:30 | 51.78315 | 0.08099 | 2484 ft | 163 kts | 46° |
| 2026-04-23 15:30 | 51.79138 | 0.09346 | 2508 ft | 161 kts | 46° |
| 2026-04-23 15:31 | 51.79955 | 0.10580 | 2458 ft | 160 kts | 45° |
| 2026-04-23 15:31 | 51.80775 | 0.11819 | 2287 ft | 163 kts | 45° |
| 2026-04-23 15:31 | 51.81604 | 0.13069 | 2082 ft | 162 kts | 45° |
| 2026-04-23 15:31 | 51.82410 | 0.14287 | 1850 ft | 153 kts | 45° |
| 2026-04-23 15:32 | 51.83153 | 0.15408 | 1641 ft | 142 kts | 44° |
| 2026-04-23 15:32 | 51.83862 | 0.16476 | 1458 ft | 138 kts | 47° |
| 2026-04-23 15:32 | 51.84568 | 0.17544 | 1260 ft | 139 kts | 44° |
| 2026-04-23 15:32 | 51.85278 | 0.18584 | 1045 ft | 140 kts | 44° |
| 2026-04-23 15:33 | 51.85989 | 0.19699 | 816 ft | 142 kts | 45° |
| 2026-04-23 15:33 | 51.86723 | 0.20792 | 639 ft | 144 kts | 44° |
| 2026-04-23 15:33 | 51.87437 | 0.21883 | 451 ft | 139 kts | 42° |
| 2026-04-23 15:33 | 51.88125 | 0.22917 | 330 ft | 127 kts | 43° |
| 2026-04-23 15:34 | 51.88690 | 0.23764 | 333 ft | 94 kts | 43° |
| 2026-04-23 15:34 | 51.89019 | 0.24276 | 336 ft | 41 kts | 52° |
| 2026-04-23 15:34 | 51.89116 | 0.24597 | 337 ft | 20 kts | 68° |
| 2026-04-23 15:34 | 51.89152 | 0.24737 | 338 ft | 7 kts | 68° |
| 2026-04-23 15:35 | 51.89158 | 0.24760 | 338 ft | 0 kts | 68° |
| 2026-04-23 15:35 | 51.89158 | 0.24763 | 338 ft | 1 kts | 68° |
| 2026-04-23 15:36 | 51.89168 | 0.24803 | 339 ft | 7 kts | 70° |
| 2026-04-23 15:36 | 51.89155 | 0.24885 | 350 ft | 8 kts | 126° |
| 2026-04-23 15:36 | 51.89166 | 0.24963 | 345 ft | 8 kts | 44° |
| 2026-04-23 15:36 | 51.89205 | 0.25025 | 348 ft | 8 kts | 48° |
| 2026-04-23 15:37 | 51.89234 | 0.25096 | 351 ft | 7 kts | 58° |
| 2026-04-23 15:37 | 51.89261 | 0.25166 | 351 ft | 7 kts | 58° |
| 2026-04-23 15:37 | 51.89281 | 0.25207 | 347 ft | 7 kts | 42° |
| 2026-04-23 15:37 | 51.89332 | 0.25283 | 348 ft | 8 kts | 43° |
| 2026-04-23 15:38 | 51.89373 | 0.25346 | 346 ft | 8 kts | 43° |
| 2026-04-23 15:38 | 51.89420 | 0.25425 | 343 ft | 10 kts | 62° |
| 2026-04-23 15:38 | 51.89395 | 0.25519 | 353 ft | 10 kts | 132° |
| 2026-04-23 15:38 | 51.89338 | 0.25576 | 347 ft | 10 kts | 142° |
| 2026-04-23 15:39 | 51.89289 | 0.25658 | 343 ft | 10 kts | 132° |
| 2026-04-23 15:39 | 51.89241 | 0.25741 | 343 ft | 10 kts | 133° |
| 2026-04-23 15:39 | 51.89194 | 0.25785 | 345 ft | 8 kts | 200° |
| 2026-04-23 15:39 | 51.89164 | 0.25740 | 347 ft | 0 kts | 222° |